Warminster, Pennsylvania
Current Conditions -  °F | °C
As of 4:54 PM on Wednesday 22 Oct 2014 (Local Time) from KPNE Reporting Station
Light Rain Light Rain  
Wind Chill: 56°   Ceiling: 2300
Heat Index: 56°   Visibility: 10mi
Dew Point: 48°   Wind: 13mph
Humidity: 75%   Direction: 360°N
Pressure: 29.86"   Gusts: NA
Location:  40.18°N, 75.07°W
Report Text: KPNE 222054Z AUTO 36011KT 10SM -RA OVC023 13/09 A2986 RMK AO2 SLP109 P0000 60007 T01330089 55004 TSNO $
Loading
Personal Weather Stations






























Interactive Weather Map
Tropical Storm Tracking
New forecast layout! Learn more

10-Day Weather Forecast

Advertisements
Track Severe Weather on mobile